sensor_id;sensor_type;location;lat;lon;timestamp;P1;durP1;ratioP1;P2;durP2;ratioP2
56073;SDS011;41950;55.840;37.442;2023-08-31T00:00:41;6.88;;;4.65;;
56073;SDS011;41950;55.840;37.442;2023-08-31T00:03:07;7.85;;;4.65;;
56073;SDS011;41950;55.840;37.442;2023-08-31T00:05:41;6.95;;;4.53;;
56073;SDS011;41950;55.840;37.442;2023-08-31T00:08:08;6.78;;;4.50;;
56073;SDS011;41950;55.840;37.442;2023-08-31T00:10:34;9.30;;;5.07;;
56073;SDS011;41950;55.840;37.442;2023-08-31T00:13:01;6.03;;;4.30;;
56073;SDS011;41950;55.840;37.442;2023-08-31T00:15:27;6.63;;;4.85;;
56073;SDS011;41950;55.840;37.442;2023-08-31T00:17:54;8.45;;;5.38;;
56073;SDS011;41950;55.840;37.442;2023-08-31T00:20:21;7.47;;;5.15;;
56073;SDS011;41950;55.840;37.442;2023-08-31T00:22:47;9.18;;;5.32;;
56073;SDS011;41950;55.840;37.442;2023-08-31T00:25:13;10.25;;;4.93;;
56073;SDS011;41950;55.840;37.442;2023-08-31T00:27:39;8.00;;;5.10;;
56073;SDS011;41950;55.840;37.442;2023-08-31T00:30:06;6.78;;;5.15;;
56073;SDS011;41950;55.840;37.442;2023-08-31T00:32:34;7.35;;;5.60;;
56073;SDS011;41950;55.840;37.442;2023-08-31T00:35:00;8.40;;;5.90;;
56073;SDS011;41950;55.840;37.442;2023-08-31T00:37:26;6.78;;;5.30;;
56073;SDS011;41950;55.840;37.442;2023-08-31T00:39:52;7.35;;;5.43;;
56073;SDS011;41950;55.840;37.442;2023-08-31T00:42:18;8.60;;;5.68;;
56073;SDS011;41950;55.840;37.442;2023-08-31T00:44:44;7.80;;;5.60;;
56073;SDS011;41950;55.840;37.442;2023-08-31T00:47:14;7.60;;;5.90;;
56073;SDS011;41950;55.840;37.442;2023-08-31T00:49:41;7.25;;;5.70;;
56073;SDS011;41950;55.840;37.442;2023-08-31T00:52:07;7.43;;;5.60;;
56073;SDS011;41950;55.840;37.442;2023-08-31T00:54:33;9.60;;;5.85;;
56073;SDS011;41950;55.840;37.442;2023-08-31T00:57:00;8.05;;;5.72;;
56073;SDS011;41950;55.840;37.442;2023-08-31T00:59:26;7.72;;;5.80;;
56073;SDS011;41950;55.840;37.442;2023-08-31T01:02:03;8.23;;;5.93;;
56073;SDS011;41950;55.840;37.442;2023-08-31T01:12:44;8.50;;;6.95;;
56073;SDS011;41950;55.840;37.442;2023-08-31T01:15:20;7.63;;;6.22;;
56073;SDS011;41950;55.840;37.442;2023-08-31T01:17:47;9.02;;;6.60;;
56073;SDS011;41950;55.840;37.442;2023-08-31T01:20:26;8.80;;;6.70;;
56073;SDS011;41950;55.840;37.442;2023-08-31T01:23:00;9.68;;;7.78;;
56073;SDS011;41950;55.840;37.442;2023-08-31T01:25:31;9.82;;;7.38;;
56073;SDS011;41950;55.840;37.442;2023-08-31T01:28:01;10.05;;;7.90;;
56073;SDS011;41950;55.840;37.442;2023-08-31T01:30:30;9.75;;;8.15;;
56073;SDS011;41950;55.840;37.442;2023-08-31T01:32:56;10.00;;;7.93;;
56073;SDS011;41950;55.840;37.442;2023-08-31T01:35:22;10.57;;;7.88;;
56073;SDS011;41950;55.840;37.442;2023-08-31T01:37:53;8.77;;;7.45;;
56073;SDS011;41950;55.840;37.442;2023-08-31T01:40:34;10.02;;;7.75;;
56073;SDS011;41950;55.840;37.442;2023-08-31T01:43:03;9.53;;;8.53;;
56073;SDS011;41950;55.840;37.442;2023-08-31T01:45:31;10.07;;;8.52;;
56073;SDS011;41950;55.840;37.442;2023-08-31T01:47:59;9.90;;;8.52;;
56073;SDS011;41950;55.840;37.442;2023-08-31T01:50:25;11.65;;;8.18;;
56073;SDS011;41950;55.840;37.442;2023-08-31T01:52:51;9.70;;;8.70;;
56073;SDS011;41950;55.840;37.442;2023-08-31T01:55:18;12.02;;;9.38;;
56073;SDS011;41950;55.840;37.442;2023-08-31T01:57:44;11.00;;;9.07;;
56073;SDS011;41950;55.840;37.442;2023-08-31T02:00:10;10.88;;;9.27;;
56073;SDS011;41950;55.840;37.442;2023-08-31T02:02:36;10.93;;;8.35;;
56073;SDS011;41950;55.840;37.442;2023-08-31T02:05:02;11.82;;;9.20;;
56073;SDS011;41950;55.840;37.442;2023-08-31T02:07:30;10.82;;;8.98;;
56073;SDS011;41950;55.840;37.442;2023-08-31T02:09:55;12.45;;;9.40;;
56073;SDS011;41950;55.840;37.442;2023-08-31T02:12:21;12.88;;;9.77;;
56073;SDS011;41950;55.840;37.442;2023-08-31T02:14:47;11.85;;;9.75;;
56073;SDS011;41950;55.840;37.442;2023-08-31T02:17:13;11.80;;;8.98;;
56073;SDS011;41950;55.840;37.442;2023-08-31T02:19:38;12.25;;;9.73;;
56073;SDS011;41950;55.840;37.442;2023-08-31T02:22:04;12.85;;;10.40;;
56073;SDS011;41950;55.840;37.442;2023-08-31T02:24:30;14.15;;;10.27;;
56073;SDS011;41950;55.840;37.442;2023-08-31T02:26:56;13.85;;;10.18;;
56073;SDS011;41950;55.840;37.442;2023-08-31T02:29:21;11.32;;;9.77;;
56073;SDS011;41950;55.840;37.442;2023-08-31T02:31:47;12.60;;;9.70;;
56073;SDS011;41950;55.840;37.442;2023-08-31T02:34:13;11.15;;;9.52;;
56073;SDS011;41950;55.840;37.442;2023-08-31T02:36:39;12.32;;;9.68;;
56073;SDS011;41950;55.840;37.442;2023-08-31T02:39:05;11.45;;;10.25;;
56073;SDS011;41950;55.840;37.442;2023-08-31T02:41:31;12.20;;;10.57;;
56073;SDS011;41950;55.840;37.442;2023-08-31T02:43:57;11.32;;;9.80;;
56073;SDS011;41950;55.840;37.442;2023-08-31T02:46:23;15.93;;;11.35;;
56073;SDS011;41950;55.840;37.442;2023-08-31T02:48:49;14.18;;;10.95;;
56073;SDS011;41950;55.840;37.442;2023-08-31T02:51:15;11.35;;;10.02;;
56073;SDS011;41950;55.840;37.442;2023-08-31T02:53:41;13.30;;;10.05;;
56073;SDS011;41950;55.840;37.442;2023-08-31T02:56:07;12.07;;;10.80;;
56073;SDS011;41950;55.840;37.442;2023-08-31T02:58:33;13.75;;;10.95;;
56073;SDS011;41950;55.840;37.442;2023-08-31T03:01:09;12.63;;;9.63;;
56073;SDS011;41950;55.840;37.442;2023-08-31T03:03:39;15.52;;;9.82;;
56073;SDS011;41950;55.840;37.442;2023-08-31T03:06:08;13.25;;;10.55;;
56073;SDS011;41950;55.840;37.442;2023-08-31T03:08:35;11.50;;;9.85;;
56073;SDS011;41950;55.840;37.442;2023-08-31T03:11:02;12.57;;;11.02;;
56073;SDS011;41950;55.840;37.442;2023-08-31T03:13:29;12.65;;;10.70;;
56073;SDS011;41950;55.840;37.442;2023-08-31T03:15:55;13.98;;;10.55;;
56073;SDS011;41950;55.840;37.442;2023-08-31T03:18:21;12.57;;;10.65;;
56073;SDS011;41950;55.840;37.442;2023-08-31T03:20:47;13.75;;;10.15;;
56073;SDS011;41950;55.840;37.442;2023-08-31T03:23:13;12.07;;;10.55;;
56073;SDS011;41950;55.840;37.442;2023-08-31T03:25:39;13.45;;;10.10;;
56073;SDS011;41950;55.840;37.442;2023-08-31T03:28:05;16.05;;;10.85;;
56073;SDS011;41950;55.840;37.442;2023-08-31T03:30:30;12.35;;;10.45;;
56073;SDS011;41950;55.840;37.442;2023-08-31T03:32:56;12.10;;;10.27;;
56073;SDS011;41950;55.840;37.442;2023-08-31T03:35:21;12.85;;;10.27;;
56073;SDS011;41950;55.840;37.442;2023-08-31T03:37:51;12.75;;;11.00;;
56073;SDS011;41950;55.840;37.442;2023-08-31T03:40:18;13.15;;;9.82;;
56073;SDS011;41950;55.840;37.442;2023-08-31T03:42:43;13.48;;;10.82;;
56073;SDS011;41950;55.840;37.442;2023-08-31T03:45:09;12.18;;;10.65;;
56073;SDS011;41950;55.840;37.442;2023-08-31T03:47:34;13.15;;;10.55;;
56073;SDS011;41950;55.840;37.442;2023-08-31T03:50:00;14.07;;;10.35;;
56073;SDS011;41950;55.840;37.442;2023-08-31T03:52:25;12.25;;;10.88;;
56073;SDS011;41950;55.840;37.442;2023-08-31T03:54:51;13.75;;;10.45;;
56073;SDS011;41950;55.840;37.442;2023-08-31T03:57:17;13.43;;;11.25;;
56073;SDS011;41950;55.840;37.442;2023-08-31T03:59:43;11.25;;;9.88;;
56073;SDS011;41950;55.840;37.442;2023-08-31T04:02:09;14.30;;;10.82;;
56073;SDS011;41950;55.840;37.442;2023-08-31T04:04:34;12.88;;;10.82;;
56073;SDS011;41950;55.840;37.442;2023-08-31T04:07:00;13.25;;;10.40;;
56073;SDS011;41950;55.840;37.442;2023-08-31T04:09:25;13.25;;;11.15;;
56073;SDS011;41950;55.840;37.442;2023-08-31T04:11:51;13.48;;;10.93;;
56073;SDS011;41950;55.840;37.442;2023-08-31T04:14:16;14.50;;;11.02;;
56073;SDS011;41950;55.840;37.442;2023-08-31T04:16:43;15.70;;;10.70;;
56073;SDS011;41950;55.840;37.442;2023-08-31T04:19:10;13.60;;;10.32;;
56073;SDS011;41950;55.840;37.442;2023-08-31T04:21:35;14.50;;;9.98;;
56073;SDS011;41950;55.840;37.442;2023-08-31T04:24:03;13.52;;;11.35;;
56073;SDS011;41950;55.840;37.442;2023-08-31T04:26:28;14.10;;;10.82;;
56073;SDS011;41950;55.840;37.442;2023-08-31T04:28:54;14.57;;;10.70;;
56073;SDS011;41950;55.840;37.442;2023-08-31T04:31:20;13.20;;;10.35;;
56073;SDS011;41950;55.840;37.442;2023-08-31T04:33:46;18.67;;;11.93;;
56073;SDS011;41950;55.840;37.442;2023-08-31T04:36:12;14.88;;;10.48;;
56073;SDS011;41950;55.840;37.442;2023-08-31T04:38:37;14.82;;;10.48;;
56073;SDS011;41950;55.840;37.442;2023-08-31T04:41:03;12.70;;;10.18;;
56073;SDS011;41950;55.840;37.442;2023-08-31T04:43:29;12.27;;;9.68;;
56073;SDS011;41950;55.840;37.442;2023-08-31T04:45:55;12.52;;;10.15;;
56073;SDS011;41950;55.840;37.442;2023-08-31T04:48:21;12.93;;;10.77;;
56073;SDS011;41950;55.840;37.442;2023-08-31T04:50:46;15.27;;;11.43;;
56073;SDS011;41950;55.840;37.442;2023-08-31T04:53:12;13.05;;;11.25;;
56073;SDS011;41950;55.840;37.442;2023-08-31T04:55:37;14.18;;;10.68;;
56073;SDS011;41950;55.840;37.442;2023-08-31T04:58:03;14.20;;;11.25;;
56073;SDS011;41950;55.840;37.442;2023-08-31T05:00:29;17.15;;;12.20;;
56073;SDS011;41950;55.840;37.442;2023-08-31T05:02:55;14.80;;;11.05;;
56073;SDS011;41950;55.840;37.442;2023-08-31T05:05:21;16.02;;;12.23;;
56073;SDS011;41950;55.840;37.442;2023-08-31T05:07:47;13.88;;;10.95;;
56073;SDS011;41950;55.840;37.442;2023-08-31T05:10:12;13.02;;;11.35;;
56073;SDS011;41950;55.840;37.442;2023-08-31T05:12:38;14.40;;;11.77;;
56073;SDS011;41950;55.840;37.442;2023-08-31T05:15:04;15.82;;;12.10;;
56073;SDS011;41950;55.840;37.442;2023-08-31T05:17:30;13.82;;;11.60;;
56073;SDS011;41950;55.840;37.442;2023-08-31T05:19:56;17.92;;;13.13;;
56073;SDS011;41950;55.840;37.442;2023-08-31T05:22:21;15.13;;;11.48;;
56073;SDS011;41950;55.840;37.442;2023-08-31T05:24:47;14.75;;;11.70;;
56073;SDS011;41950;55.840;37.442;2023-08-31T05:27:13;14.18;;;11.10;;
56073;SDS011;41950;55.840;37.442;2023-08-31T05:29:39;15.07;;;11.85;;
56073;SDS011;41950;55.840;37.442;2023-08-31T05:32:04;15.23;;;12.82;;
56073;SDS011;41950;55.840;37.442;2023-08-31T05:34:30;16.48;;;11.93;;
56073;SDS011;41950;55.840;37.442;2023-08-31T05:36:58;13.43;;;11.63;;
56073;SDS011;41950;55.840;37.442;2023-08-31T05:39:23;15.15;;;12.02;;
56073;SDS011;41950;55.840;37.442;2023-08-31T05:41:49;13.82;;;11.35;;
56073;SDS011;41950;55.840;37.442;2023-08-31T05:44:16;13.93;;;12.40;;
56073;SDS011;41950;55.840;37.442;2023-08-31T05:46:42;12.95;;;11.40;;
56073;SDS011;41950;55.840;37.442;2023-08-31T05:49:07;12.90;;;10.95;;
56073;SDS011;41950;55.840;37.442;2023-08-31T05:51:33;12.25;;;9.60;;
56073;SDS011;41950;55.840;37.442;2023-08-31T05:53:59;12.23;;;10.75;;
56073;SDS011;41950;55.840;37.442;2023-08-31T05:56:25;12.07;;;10.73;;
56073;SDS011;41950;55.840;37.442;2023-08-31T05:58:50;14.20;;;11.10;;
56073;SDS011;41950;55.840;37.442;2023-08-31T06:01:19;14.48;;;11.48;;
56073;SDS011;41950;55.840;37.442;2023-08-31T06:03:45;13.77;;;10.80;;
56073;SDS011;41950;55.840;37.442;2023-08-31T06:06:11;12.82;;;10.85;;
56073;SDS011;41950;55.840;37.442;2023-08-31T06:08:36;13.82;;;11.48;;
56073;SDS011;41950;55.840;37.442;2023-08-31T06:11:02;14.57;;;11.35;;
56073;SDS011;41950;55.840;37.442;2023-08-31T06:13:27;12.75;;;11.38;;
56073;SDS011;41950;55.840;37.442;2023-08-31T06:15:53;13.13;;;11.45;;
56073;SDS011;41950;55.840;37.442;2023-08-31T06:18:20;16.08;;;12.25;;
56073;SDS011;41950;55.840;37.442;2023-08-31T06:20:46;15.60;;;11.55;;
56073;SDS011;41950;55.840;37.442;2023-08-31T06:23:13;14.93;;;11.75;;
56073;SDS011;41950;55.840;37.442;2023-08-31T06:25:39;13.77;;;12.25;;
56073;SDS011;41950;55.840;37.442;2023-08-31T06:28:05;15.95;;;12.52;;
56073;SDS011;41950;55.840;37.442;2023-08-31T06:30:33;27.65;;;17.15;;
56073;SDS011;41950;55.840;37.442;2023-08-31T06:32:59;24.23;;;15.18;;
56073;SDS011;41950;55.840;37.442;2023-08-31T06:35:25;19.15;;;13.57;;
56073;SDS011;41950;55.840;37.442;2023-08-31T06:37:51;16.98;;;12.30;;
56073;SDS011;41950;55.840;37.442;2023-08-31T06:40:16;13.95;;;11.32;;
56073;SDS011;41950;55.840;37.442;2023-08-31T06:42:42;15.27;;;11.07;;
56073;SDS011;41950;55.840;37.442;2023-08-31T06:45:08;13.32;;;10.80;;
56073;SDS011;41950;55.840;37.442;2023-08-31T06:47:34;13.68;;;9.40;;
56073;SDS011;41950;55.840;37.442;2023-08-31T06:50:00;14.32;;;10.45;;
56073;SDS011;41950;55.840;37.442;2023-08-31T06:52:26;13.07;;;10.00;;
56073;SDS011;41950;55.840;37.442;2023-08-31T06:54:52;15.35;;;9.88;;
56073;SDS011;41950;55.840;37.442;2023-08-31T06:57:25;13.88;;;10.00;;
56073;SDS011;41950;55.840;37.442;2023-08-31T06:59:51;12.80;;;9.20;;
56073;SDS011;41950;55.840;37.442;2023-08-31T07:02:17;15.70;;;9.55;;
56073;SDS011;41950;55.840;37.442;2023-08-31T07:04:44;12.02;;;8.93;;
56073;SDS011;41950;55.840;37.442;2023-08-31T07:07:11;14.90;;;9.50;;
56073;SDS011;41950;55.840;37.442;2023-08-31T07:09:39;11.30;;;8.27;;
56073;SDS011;41950;55.840;37.442;2023-08-31T07:12:08;11.73;;;8.90;;
56073;SDS011;41950;55.840;37.442;2023-08-31T07:14:33;11.77;;;9.35;;
56073;SDS011;41950;55.840;37.442;2023-08-31T07:16:59;10.88;;;8.70;;
56073;SDS011;41950;55.840;37.442;2023-08-31T07:19:24;11.88;;;8.25;;
56073;SDS011;41950;55.840;37.442;2023-08-31T07:21:52;14.98;;;9.07;;
56073;SDS011;41950;55.840;37.442;2023-08-31T07:24:19;12.63;;;9.07;;
56073;SDS011;41950;55.840;37.442;2023-08-31T07:26:45;12.20;;;8.65;;
56073;SDS011;41950;55.840;37.442;2023-08-31T07:29:11;11.75;;;8.55;;
56073;SDS011;41950;55.840;37.442;2023-08-31T07:31:36;10.88;;;8.55;;
56073;SDS011;41950;55.840;37.442;2023-08-31T07:34:02;10.68;;;7.88;;
56073;SDS011;41950;55.840;37.442;2023-08-31T07:36:28;12.80;;;8.90;;
56073;SDS011;41950;55.840;37.442;2023-08-31T07:38:54;11.43;;;9.05;;
56073;SDS011;41950;55.840;37.442;2023-08-31T07:41:19;14.45;;;9.05;;
56073;SDS011;41950;55.840;37.442;2023-08-31T07:43:45;13.35;;;8.80;;
56073;SDS011;41950;55.840;37.442;2023-08-31T07:46:10;14.05;;;8.90;;
56073;SDS011;41950;55.840;37.442;2023-08-31T07:48:36;15.77;;;8.70;;
56073;SDS011;41950;55.840;37.442;2023-08-31T07:51:01;14.68;;;8.70;;
56073;SDS011;41950;55.840;37.442;2023-08-31T07:53:28;14.68;;;10.70;;
56073;SDS011;41950;55.840;37.442;2023-08-31T07:55:54;12.23;;;8.50;;
56073;SDS011;41950;55.840;37.442;2023-08-31T07:58:21;13.50;;;8.60;;
56073;SDS011;41950;55.840;37.442;2023-08-31T08:00:48;16.27;;;8.93;;
56073;SDS011;41950;55.840;37.442;2023-08-31T08:03:13;13.38;;;8.60;;
56073;SDS011;41950;55.840;37.442;2023-08-31T08:05:39;13.48;;;8.20;;
56073;SDS011;41950;55.840;37.442;2023-08-31T08:08:05;10.05;;;7.78;;
56073;SDS011;41950;55.840;37.442;2023-08-31T08:10:31;10.02;;;7.75;;
56073;SDS011;41950;55.840;37.442;2023-08-31T08:12:56;12.85;;;7.80;;
56073;SDS011;41950;55.840;37.442;2023-08-31T08:15:22;12.38;;;7.28;;
56073;SDS011;41950;55.840;37.442;2023-08-31T08:17:47;11.32;;;8.18;;
56073;SDS011;41950;55.840;37.442;2023-08-31T08:20:13;12.40;;;7.20;;
56073;SDS011;41950;55.840;37.442;2023-08-31T08:22:39;10.55;;;6.93;;
56073;SDS011;41950;55.840;37.442;2023-08-31T08:25:05;10.40;;;7.22;;
56073;SDS011;41950;55.840;37.442;2023-08-31T08:27:31;13.13;;;7.57;;
56073;SDS011;41950;55.840;37.442;2023-08-31T08:29:58;11.90;;;6.40;;
56073;SDS011;41950;55.840;37.442;2023-08-31T08:32:24;11.77;;;6.97;;
56073;SDS011;41950;55.840;37.442;2023-08-31T08:34:50;9.05;;;6.40;;
56073;SDS011;41950;55.840;37.442;2023-08-31T08:37:16;10.77;;;6.60;;
56073;SDS011;41950;55.840;37.442;2023-08-31T08:39:41;9.80;;;6.93;;
56073;SDS011;41950;55.840;37.442;2023-08-31T08:42:07;10.50;;;6.68;;
56073;SDS011;41950;55.840;37.442;2023-08-31T08:44:36;9.95;;;6.40;;
56073;SDS011;41950;55.840;37.442;2023-08-31T08:47:02;14.20;;;8.18;;
56073;SDS011;41950;55.840;37.442;2023-08-31T08:49:30;14.07;;;7.03;;
56073;SDS011;41950;55.840;37.442;2023-08-31T08:51:56;9.05;;;6.45;;
56073;SDS011;41950;55.840;37.442;2023-08-31T08:54:23;11.07;;;6.88;;
56073;SDS011;41950;55.840;37.442;2023-08-31T08:56:49;9.63;;;7.10;;
56073;SDS011;41950;55.840;37.442;2023-08-31T08:59:14;11.88;;;7.70;;
56073;SDS011;41950;55.840;37.442;2023-08-31T09:01:40;9.48;;;7.35;;
56073;SDS011;41950;55.840;37.442;2023-08-31T09:04:08;10.00;;;7.10;;
56073;SDS011;41950;55.840;37.442;2023-08-31T09:06:35;12.35;;;6.78;;
56073;SDS011;41950;55.840;37.442;2023-08-31T09:09:01;11.23;;;7.07;;
56073;SDS011;41950;55.840;37.442;2023-08-31T09:11:26;12.40;;;7.00;;
56073;SDS011;41950;55.840;37.442;2023-08-31T09:13:53;11.55;;;6.82;;
56073;SDS011;41950;55.840;37.442;2023-08-31T09:16:29;9.45;;;6.50;;
56073;SDS011;41950;55.840;37.442;2023-08-31T09:18:58;10.45;;;7.15;;
56073;SDS011;41950;55.840;37.442;2023-08-31T09:21:36;11.55;;;6.03;;
56073;SDS011;41950;55.840;37.442;2023-08-31T09:24:06;11.60;;;6.70;;
56073;SDS011;41950;55.840;37.442;2023-08-31T09:26:39;10.85;;;6.90;;
56073;SDS011;41950;55.840;37.442;2023-08-31T09:29:09;9.80;;;6.10;;
56073;SDS011;41950;55.840;37.442;2023-08-31T09:31:35;9.30;;;6.32;;
56073;SDS011;41950;55.840;37.442;2023-08-31T09:34:01;9.10;;;5.78;;
56073;SDS011;41950;55.840;37.442;2023-08-31T09:36:28;10.55;;;6.72;;
56073;SDS011;41950;55.840;37.442;2023-08-31T09:38:56;9.98;;;6.53;;
56073;SDS011;41950;55.840;37.442;2023-08-31T09:41:23;10.68;;;6.35;;
56073;SDS011;41950;55.840;37.442;2023-08-31T09:43:49;11.90;;;6.82;;
56073;SDS011;41950;55.840;37.442;2023-08-31T09:46:15;11.63;;;6.70;;
56073;SDS011;41950;55.840;37.442;2023-08-31T09:48:41;9.50;;;5.70;;
56073;SDS011;41950;55.840;37.442;2023-08-31T09:51:11;12.63;;;5.68;;
56073;SDS011;41950;55.840;37.442;2023-08-31T09:53:39;9.45;;;5.90;;
56073;SDS011;41950;55.840;37.442;2023-08-31T09:56:07;8.32;;;5.22;;
56073;SDS011;41950;55.840;37.442;2023-08-31T09:58:37;10.05;;;6.57;;
56073;SDS011;41950;55.840;37.442;2023-08-31T10:01:06;10.45;;;6.20;;
56073;SDS011;41950;55.840;37.442;2023-08-31T10:03:32;9.75;;;5.57;;
56073;SDS011;41950;55.840;37.442;2023-08-31T10:05:58;9.20;;;5.53;;
56073;SDS011;41950;55.840;37.442;2023-08-31T10:08:26;8.98;;;5.93;;
56073;SDS011;41950;55.840;37.442;2023-08-31T10:10:58;7.57;;;5.88;;
56073;SDS011;41950;55.840;37.442;2023-08-31T10:13:25;9.25;;;5.60;;
56073;SDS011;41950;55.840;37.442;2023-08-31T10:15:54;10.18;;;5.78;;
56073;SDS011;41950;55.840;37.442;2023-08-31T10:18:20;13.07;;;7.95;;
56073;SDS011;41950;55.840;37.442;2023-08-31T10:20:46;9.52;;;5.50;;
56073;SDS011;41950;55.840;37.442;2023-08-31T10:23:12;10.35;;;5.72;;
56073;SDS011;41950;55.840;37.442;2023-08-31T10:28:25;11.98;;;6.00;;
56073;SDS011;41950;55.840;37.442;2023-08-31T10:31:05;12.93;;;5.85;;
56073;SDS011;41950;55.840;37.442;2023-08-31T10:33:47;8.52;;;5.30;;
56073;SDS011;41950;55.840;37.442;2023-08-31T10:39:12;10.18;;;5.45;;
56073;SDS011;41950;55.840;37.442;2023-08-31T10:41:40;11.10;;;5.80;;
56073;SDS011;41950;55.840;37.442;2023-08-31T10:44:41;12.38;;;6.30;;
56073;SDS011;41950;55.840;37.442;2023-08-31T10:47:03;10.65;;;6.03;;
56073;SDS011;41950;55.840;37.442;2023-08-31T10:49:29;17.25;;;7.07;;
56073;SDS011;41950;55.840;37.442;2023-08-31T10:52:14;11.27;;;6.65;;
56073;SDS011;41950;55.840;37.442;2023-08-31T10:54:42;11.70;;;5.38;;
56073;SDS011;41950;55.840;37.442;2023-08-31T10:57:08;10.73;;;5.60;;
56073;SDS011;41950;55.840;37.442;2023-08-31T10:59:44;16.80;;;7.47;;
56073;SDS011;41950;55.840;37.442;2023-08-31T11:02:10;13.07;;;6.22;;
56073;SDS011;41950;55.840;37.442;2023-08-31T11:05:11;9.23;;;5.28;;
56073;SDS011;41950;55.840;37.442;2023-08-31T11:07:41;10.07;;;5.32;;
56073;SDS011;41950;55.840;37.442;2023-08-31T11:10:12;8.27;;;4.97;;
56073;SDS011;41950;55.840;37.442;2023-08-31T11:12:41;12.55;;;6.18;;
56073;SDS011;41950;55.840;37.442;2023-08-31T11:15:08;7.50;;;4.60;;
56073;SDS011;41950;55.840;37.442;2023-08-31T11:17:36;9.07;;;5.32;;
56073;SDS011;41950;55.840;37.442;2023-08-31T11:20:05;8.70;;;4.97;;
56073;SDS011;41950;55.840;37.442;2023-08-31T11:22:31;9.80;;;5.80;;
56073;SDS011;41950;55.840;37.442;2023-08-31T11:24:58;10.98;;;6.38;;
56073;SDS011;41950;55.840;37.442;2023-08-31T11:27:24;8.10;;;5.30;;
56073;SDS011;41950;55.840;37.442;2023-08-31T11:29:50;9.13;;;5.22;;
56073;SDS011;41950;55.840;37.442;2023-08-31T11:32:15;8.73;;;5.15;;
56073;SDS011;41950;55.840;37.442;2023-08-31T11:34:42;8.98;;;5.63;;
56073;SDS011;41950;55.840;37.442;2023-08-31T11:37:09;8.32;;;5.03;;
56073;SDS011;41950;55.840;37.442;2023-08-31T11:39:40;7.97;;;5.07;;
56073;SDS011;41950;55.840;37.442;2023-08-31T11:42:08;8.63;;;5.30;;
56073;SDS011;41950;55.840;37.442;2023-08-31T11:44:33;6.38;;;5.30;;
56073;SDS011;41950;55.840;37.442;2023-08-31T11:47:00;9.07;;;5.30;;
56073;SDS011;41950;55.840;37.442;2023-08-31T11:49:26;8.65;;;5.25;;
56073;SDS011;41950;55.840;37.442;2023-08-31T11:51:53;9.52;;;5.18;;
56073;SDS011;41950;55.840;37.442;2023-08-31T11:54:19;7.60;;;5.05;;
56073;SDS011;41950;55.840;37.442;2023-08-31T11:56:45;8.15;;;4.82;;
56073;SDS011;41950;55.840;37.442;2023-08-31T11:59:17;9.07;;;4.88;;
56073;SDS011;41950;55.840;37.442;2023-08-31T12:01:48;7.35;;;4.55;;
56073;SDS011;41950;55.840;37.442;2023-08-31T12:04:21;6.97;;;4.65;;
56073;SDS011;41950;55.840;37.442;2023-08-31T12:06:58;7.90;;;4.60;;
56073;SDS011;41950;55.840;37.442;2023-08-31T12:09:27;10.85;;;5.20;;
56073;SDS011;41950;55.840;37.442;2023-08-31T12:11:53;9.23;;;4.78;;
56073;SDS011;41950;55.840;37.442;2023-08-31T12:14:20;6.85;;;4.35;;
56073;SDS011;41950;55.840;37.442;2023-08-31T12:16:46;8.77;;;5.30;;
56073;SDS011;41950;55.840;37.442;2023-08-31T12:19:12;8.15;;;4.55;;
56073;SDS011;41950;55.840;37.442;2023-08-31T12:21:38;9.15;;;4.63;;
56073;SDS011;41950;55.840;37.442;2023-08-31T12:24:04;9.07;;;5.18;;
56073;SDS011;41950;55.840;37.442;2023-08-31T12:26:31;7.90;;;4.60;;
56073;SDS011;41950;55.840;37.442;2023-08-31T12:28:57;10.98;;;4.80;;
56073;SDS011;41950;55.840;37.442;2023-08-31T12:31:23;7.93;;;4.55;;
56073;SDS011;41950;55.840;37.442;2023-08-31T12:33:49;7.47;;;5.25;;
56073;SDS011;41950;55.840;37.442;2023-08-31T12:36:15;8.77;;;5.00;;
56073;SDS011;41950;55.840;37.442;2023-08-31T12:38:40;8.52;;;4.80;;
56073;SDS011;41950;55.840;37.442;2023-08-31T12:41:06;10.38;;;4.80;;
56073;SDS011;41950;55.840;37.442;2023-08-31T12:43:32;8.43;;;5.18;;
56073;SDS011;41950;55.840;37.442;2023-08-31T12:45:58;9.02;;;5.20;;
56073;SDS011;41950;55.840;37.442;2023-08-31T12:48:24;8.90;;;5.07;;
56073;SDS011;41950;55.840;37.442;2023-08-31T12:50:50;9.75;;;5.18;;
56073;SDS011;41950;55.840;37.442;2023-08-31T12:53:15;7.38;;;4.65;;
56073;SDS011;41950;55.840;37.442;2023-08-31T12:55:41;9.57;;;5.20;;
56073;SDS011;41950;55.840;37.442;2023-08-31T12:58:07;8.23;;;5.07;;
56073;SDS011;41950;55.840;37.442;2023-08-31T13:00:34;8.20;;;4.97;;
56073;SDS011;41950;55.840;37.442;2023-08-31T13:03:00;8.98;;;4.65;;
56073;SDS011;41950;55.840;37.442;2023-08-31T13:05:27;7.72;;;5.22;;
56073;SDS011;41950;55.840;37.442;2023-08-31T13:07:54;7.32;;;4.60;;
56073;SDS011;41950;55.840;37.442;2023-08-31T13:10:20;7.43;;;4.95;;
56073;SDS011;41950;55.840;37.442;2023-08-31T13:12:46;11.05;;;5.50;;
56073;SDS011;41950;55.840;37.442;2023-08-31T13:15:11;9.80;;;5.20;;
56073;SDS011;41950;55.840;37.442;2023-08-31T13:17:38;7.85;;;5.28;;
56073;SDS011;41950;55.840;37.442;2023-08-31T13:20:04;11.05;;;4.93;;
56073;SDS011;41950;55.840;37.442;2023-08-31T13:22:30;9.05;;;5.05;;
56073;SDS011;41950;55.840;37.442;2023-08-31T13:24:56;9.00;;;5.30;;
56073;SDS011;41950;55.840;37.442;2023-08-31T13:27:22;7.95;;;4.93;;
56073;SDS011;41950;55.840;37.442;2023-08-31T13:29:47;7.45;;;4.43;;
56073;SDS011;41950;55.840;37.442;2023-08-31T13:32:13;7.53;;;4.80;;
56073;SDS011;41950;55.840;37.442;2023-08-31T13:34:39;8.07;;;5.60;;
56073;SDS011;41950;55.840;37.442;2023-08-31T13:37:04;10.05;;;5.45;;
56073;SDS011;41950;55.840;37.442;2023-08-31T13:39:30;8.95;;;5.40;;
56073;SDS011;41950;55.840;37.442;2023-08-31T13:41:57;9.73;;;4.78;;
56073;SDS011;41950;55.840;37.442;2023-08-31T13:44:22;8.55;;;4.88;;
56073;SDS011;41950;55.840;37.442;2023-08-31T13:46:48;9.30;;;5.03;;
56073;SDS011;41950;55.840;37.442;2023-08-31T13:49:14;7.30;;;4.45;;
56073;SDS011;41950;55.840;37.442;2023-08-31T13:51:41;9.88;;;5.10;;
56073;SDS011;41950;55.840;37.442;2023-08-31T13:54:07;9.43;;;5.03;;
56073;SDS011;41950;55.840;37.442;2023-08-31T13:56:33;7.72;;;5.28;;
56073;SDS011;41950;55.840;37.442;2023-08-31T13:58:59;9.07;;;5.03;;
56073;SDS011;41950;55.840;37.442;2023-08-31T14:01:25;9.40;;;5.57;;
56073;SDS011;41950;55.840;37.442;2023-08-31T14:03:51;9.32;;;5.05;;
56073;SDS011;41950;55.840;37.442;2023-08-31T14:06:17;9.32;;;4.80;;
56073;SDS011;41950;55.840;37.442;2023-08-31T14:08:43;11.07;;;5.30;;
56073;SDS011;41950;55.840;37.442;2023-08-31T14:11:15;9.98;;;6.22;;
56073;SDS011;41950;55.840;37.442;2023-08-31T14:14:07;9.13;;;4.88;;
56073;SDS011;41950;55.840;37.442;2023-08-31T14:16:36;10.57;;;5.68;;
56073;SDS011;41950;55.840;37.442;2023-08-31T14:19:03;9.50;;;4.95;;
56073;SDS011;41950;55.840;37.442;2023-08-31T14:21:29;7.80;;;5.18;;
56073;SDS011;41950;55.840;37.442;2023-08-31T14:23:55;8.43;;;5.47;;
56073;SDS011;41950;55.840;37.442;2023-08-31T14:26:22;7.40;;;5.65;;
56073;SDS011;41950;55.840;37.442;2023-08-31T14:28:49;10.65;;;5.72;;
56073;SDS011;41950;55.840;37.442;2023-08-31T14:31:18;9.90;;;5.53;;
56073;SDS011;41950;55.840;37.442;2023-08-31T14:33:44;13.43;;;5.93;;
56073;SDS011;41950;55.840;37.442;2023-08-31T14:36:11;7.97;;;5.07;;